createdAt,value
2018-03-17T00:01:49.570Z,95.30
2018-03-17T00:04:18.775Z,95.40
2018-03-17T00:06:48.361Z,95.50
2018-03-17T00:09:18.369Z,95.60
2018-03-17T00:11:48.401Z,95.30
2018-03-17T00:14:18.381Z,95.30
2018-03-17T00:16:48.389Z,95.90
2018-03-17T00:19:17.633Z,95.50
2018-03-17T00:21:46.881Z,95.50
2018-03-17T00:24:16.199Z,95.80
2018-03-17T00:26:45.522Z,96.10
2018-03-17T00:29:15.502Z,96.20
2018-03-17T00:31:44.761Z,96.20
2018-03-17T00:34:14.069Z,96.20
2018-03-17T00:36:43.359Z,95.80
2018-03-17T00:39:12.662Z,95.60
2018-03-17T00:41:41.957Z,95.00
2018-03-17T00:44:11.257Z,94.50
2018-03-17T00:46:40.529Z,94.60
2018-03-17T00:49:10.510Z,95.50
2018-03-17T00:51:39.802Z,95.50
2018-03-17T00:54:09.189Z,95.80
2018-03-17T00:56:38.522Z,96.00
2018-03-17T00:59:07.806Z,96.10
2018-03-17T01:01:37.077Z,95.90
2018-03-17T01:04:06.377Z,95.90
2018-03-17T01:06:35.697Z,96.20
2018-03-17T01:09:05.046Z,95.80
2018-03-17T01:11:34.341Z,95.50
2018-03-17T01:14:03.658Z,95.60
2018-03-17T01:16:32.926Z,94.70
2018-03-17T01:19:02.181Z,95.00
2018-03-17T01:21:31.489Z,95.20
2018-03-17T01:24:00.782Z,95.00
2018-03-17T01:26:30.069Z,94.80
2018-03-17T01:28:59.324Z,94.80
2018-03-17T01:31:28.538Z,95.00
2018-03-17T01:33:58.507Z,95.00
2018-03-17T01:36:27.783Z,95.00
2018-03-17T01:38:57.186Z,94.70
2018-03-17T01:41:26.689Z,94.70
2018-03-17T01:43:55.993Z,94.90
2018-03-17T01:46:26.150Z,94.80
2018-03-17T01:48:55.424Z,95.30
2018-03-17T01:51:24.709Z,95.90
2018-03-17T01:54:11.910Z,95.60
2018-03-17T01:56:41.143Z,95.30
2018-03-17T01:59:10.386Z,94.90
2018-03-17T02:01:39.629Z,94.60
2018-03-17T02:04:08.908Z,95.20
2018-03-17T02:06:38.201Z,96.20
2018-03-17T02:09:08.161Z,95.40
2018-03-17T02:11:37.449Z,95.40
2018-03-17T02:14:06.723Z,95.90
2018-03-17T02:16:35.957Z,96.40
2018-03-17T02:19:05.262Z,96.10
2018-03-17T02:21:34.532Z,96.20
2018-03-17T02:24:03.750Z,96.80
2018-03-17T02:26:33.033Z,96.90
2018-03-17T02:29:02.349Z,97.00
2018-03-17T02:31:31.631Z,96.80
2018-03-17T02:34:00.921Z,96.90
2018-03-17T02:36:30.166Z,96.90
2018-03-17T02:38:59.429Z,97.20
2018-03-17T02:41:28.754Z,97.60
2018-03-17T02:43:58.002Z,97.80
2018-03-17T02:46:28.041Z,96.90
2018-03-17T02:48:57.292Z,96.80
2018-03-17T02:51:26.526Z,97.10
2018-03-17T02:53:55.734Z,97.50
2018-03-17T02:56:24.953Z,97.50
2018-03-17T02:58:54.252Z,96.90
2018-03-17T03:01:23.526Z,96.30
2018-03-17T03:03:53.007Z,97.20
2018-03-17T03:06:23.118Z,97.10
2018-03-17T03:08:53.270Z,97.00
2018-03-17T03:11:22.616Z,97.00
2018-03-17T03:13:51.926Z,97.20
2018-03-17T03:16:21.266Z,97.20
2018-03-17T03:18:50.609Z,96.80
2018-03-17T03:21:19.939Z,96.80
2018-03-17T03:23:50.034Z,96.50
2018-03-17T03:26:19.378Z,96.50
2018-03-17T03:28:48.734Z,96.50
2018-03-17T03:31:18.119Z,96.60
2018-03-17T03:33:47.428Z,96.80
2018-03-17T03:36:16.747Z,97.10
2018-03-17T03:38:46.121Z,97.20
2018-03-17T03:41:15.478Z,97.30
2018-03-17T03:43:44.858Z,97.40
2018-03-17T03:46:15.102Z,97.90
2018-03-17T03:48:44.407Z,97.90
2018-03-17T03:51:13.806Z,97.80
2018-03-17T03:53:43.926Z,98.00
2018-03-17T03:56:13.999Z,98.10
2018-03-17T03:58:43.312Z,98.10
2018-03-17T04:01:12.678Z,98.20
2018-03-17T04:03:42.054Z,98.10
2018-03-17T04:06:11.341Z,98.10
2018-03-17T04:08:41.474Z,98.30
2018-03-17T04:11:10.742Z,98.30
2018-03-17T04:13:40.014Z,98.00
2018-03-17T04:16:09.337Z,98.10
2018-03-17T04:18:39.387Z,98.90
2018-03-17T04:21:08.719Z,98.60
2018-03-17T04:23:38.077Z,98.50
2018-03-17T04:26:07.447Z,98.50
2018-03-17T04:28:36.788Z,98.00
2018-03-17T04:31:06.210Z,97.70
2018-03-17T04:33:35.658Z,97.50
2018-03-17T04:36:05.023Z,97.80
2018-03-17T04:38:34.415Z,97.90
2018-03-17T04:41:03.740Z,97.90
2018-03-17T04:43:33.087Z,98.10
2018-03-17T04:46:03.196Z,97.90
2018-03-17T04:48:32.472Z,97.90
2018-03-17T04:51:01.798Z,98.30
2018-03-17T04:53:31.919Z,98.20
2018-03-17T04:56:02.010Z,97.70
2018-03-17T04:58:31.303Z,97.70
2018-03-17T05:01:00.679Z,97.60
2018-03-17T05:03:30.087Z,97.70
2018-03-17T05:05:59.424Z,97.60
2018-03-17T05:08:28.859Z,97.30
2018-03-17T05:10:59.822Z,97.90
2018-03-17T05:13:29.203Z,97.90
2018-03-17T05:15:58.479Z,97.80
2018-03-17T05:18:28.567Z,97.60
2018-03-17T05:20:57.918Z,97.60
2018-03-17T05:23:27.265Z,97.30
2018-03-17T05:25:56.559Z,97.20
2018-03-17T05:28:25.927Z,97.60
2018-03-17T05:30:55.259Z,97.90
2018-03-17T05:33:24.599Z,97.80
2018-03-17T05:35:54.719Z,97.10
2018-03-17T05:38:24.827Z,97.20
2018-03-17T05:40:54.119Z,97.10
2018-03-17T05:43:23.506Z,97.30
2018-03-17T05:45:52.859Z,97.50
2018-03-17T05:48:22.921Z,97.60
2018-03-17T05:50:52.338Z,97.50
2018-03-17T05:53:21.641Z,97.50
2018-03-17T05:55:50.959Z,97.10
2018-03-17T05:58:21.178Z,96.80
2018-03-17T06:00:51.368Z,97.30
2018-03-17T06:03:20.687Z,97.10
2018-03-17T06:05:50.028Z,97.30
2018-03-17T06:08:19.325Z,97.20
2018-03-17T06:10:49.618Z,97.50
2018-03-17T06:13:18.981Z,97.30
2018-03-17T06:15:48.359Z,97.40
2018-03-17T06:18:17.759Z,97.60
2018-03-17T06:20:47.204Z,97.80
2018-03-17T06:23:16.546Z,97.50
2018-03-17T06:25:45.888Z,97.40
2018-03-17T06:28:15.347Z,97.60
2018-03-17T06:30:44.690Z,97.80
2018-03-17T06:33:14.027Z,97.70
2018-03-17T06:35:43.399Z,97.70
2018-03-17T06:38:13.506Z,97.40
2018-03-17T06:40:42.869Z,97.40
2018-03-17T06:43:12.999Z,96.90
2018-03-17T06:45:42.313Z,96.90
2018-03-17T06:48:11.599Z,97.10
2018-03-17T06:50:40.979Z,97.00
2018-03-17T06:53:10.319Z,96.90
2018-03-17T06:55:39.598Z,96.80
2018-03-17T06:58:08.985Z,96.70
2018-03-17T07:00:39.154Z,96.80
2018-03-17T07:03:08.508Z,96.80
2018-03-17T07:05:38.599Z,96.90
2018-03-17T07:08:07.919Z,96.90
2018-03-17T07:10:37.207Z,97.20
2018-03-17T07:13:06.531Z,97.30
2018-03-17T07:15:36.607Z,97.80
2018-03-17T07:18:06.048Z,97.80
2018-03-17T07:20:35.439Z,98.20
2018-03-17T07:23:04.766Z,97.80
2018-03-17T07:25:34.799Z,97.60
2018-03-17T07:28:04.245Z,97.50
2018-03-17T07:30:33.551Z,97.60
2018-03-17T07:33:02.878Z,97.80
2018-03-17T07:35:32.261Z,97.40
2018-03-17T07:38:01.518Z,97.50
2018-03-17T07:40:30.839Z,97.70
2018-03-17T07:43:00.192Z,97.80
2018-03-17T07:45:29.547Z,97.60
2018-03-17T07:47:58.889Z,97.50
2018-03-17T07:50:28.271Z,97.30
2018-03-17T07:52:57.988Z,97.40
2018-03-17T07:55:27.318Z,97.30
2018-03-17T07:57:56.876Z,97.40
2018-03-17T08:00:26.301Z,97.20
2018-03-17T08:02:56.409Z,96.80
2018-03-17T08:05:26.151Z,96.80
2018-03-17T08:07:55.506Z,96.80
2018-03-17T08:10:25.059Z,96.60
2018-03-17T08:12:54.551Z,96.10
2018-03-17T08:15:24.641Z,96.00
2018-03-17T08:17:53.946Z,96.00
2018-03-17T08:20:23.330Z,95.90
2018-03-17T08:22:52.655Z,95.40
2018-03-17T08:25:22.788Z,95.60
2018-03-17T08:27:52.922Z,94.90
2018-03-17T08:30:22.300Z,94.90
2018-03-17T08:32:53.259Z,94.80
2018-03-17T08:35:22.677Z,94.80
2018-03-17T08:37:52.040Z,94.80
2018-03-17T08:40:22.149Z,94.50
2018-03-17T08:42:51.508Z,94.50
2018-03-17T08:45:20.879Z,94.20
2018-03-17T08:47:50.960Z,94.30
2018-03-17T08:50:20.339Z,94.30
2018-03-17T08:52:49.649Z,94.40
2018-03-17T08:55:18.967Z,93.70
2018-03-17T08:57:48.367Z,92.80
2018-03-17T09:00:17.699Z,93.10
2018-03-17T09:02:47.031Z,93.00
2018-03-17T09:05:16.405Z,92.50
2018-03-17T09:07:46.465Z,92.70
2018-03-17T09:10:15.787Z,92.70
2018-03-17T09:12:45.167Z,92.90
2018-03-17T09:15:14.499Z,93.10
2018-03-17T09:17:43.798Z,92.10
2018-03-17T09:20:13.891Z,90.20
2018-03-17T09:22:43.171Z,90.10
2018-03-17T09:25:12.547Z,91.00
2018-03-17T09:27:42.099Z,90.40
2018-03-17T09:30:11.447Z,90.40
2018-03-17T09:32:40.727Z,90.60
2018-03-17T09:35:10.863Z,89.10
2018-03-17T09:37:40.955Z,89.60
2018-03-17T09:40:10.287Z,89.50
2018-03-17T09:42:39.786Z,90.30
2018-03-17T09:45:09.086Z,88.30
2018-03-17T09:47:38.380Z,87.70
2018-03-17T09:50:07.746Z,87.70
2018-03-17T09:52:37.062Z,89.00
2018-03-17T09:55:06.402Z,90.00
2018-03-17T09:57:35.870Z,86.10
2018-03-17T10:00:06.021Z,85.70
2018-03-17T10:02:35.300Z,85.70
2018-03-17T10:05:05.487Z,82.70
2018-03-17T10:07:34.838Z,82.60
2018-03-17T10:10:04.299Z,82.60
2018-03-17T10:12:34.486Z,84.20
2018-03-17T10:15:04.005Z,84.20
2018-03-17T10:17:33.487Z,85.40
2018-03-17T10:20:02.866Z,84.70
2018-03-17T10:22:32.295Z,85.10
2018-03-17T10:25:01.648Z,85.90
2018-03-17T10:27:31.819Z,84.60
2018-03-17T10:30:01.926Z,84.60
2018-03-17T10:32:31.327Z,82.40
2018-03-17T10:35:00.780Z,84.40
2018-03-17T10:37:30.878Z,82.80
2018-03-17T10:40:01.039Z,81.60
2018-03-17T10:42:30.445Z,82.20
2018-03-17T10:44:59.814Z,82.20
2018-03-17T10:47:29.185Z,80.50
2018-03-17T10:49:58.575Z,79.90
2018-03-17T10:52:27.979Z,77.80
2018-03-17T10:54:57.415Z,75.10
2018-03-17T10:57:26.807Z,76.90
2018-03-17T10:59:56.227Z,78.00
2018-03-17T11:02:36.287Z,75.20
2018-03-17T11:05:05.727Z,75.10
2018-03-17T11:07:35.127Z,72.50
2018-03-17T11:10:04.555Z,74.60
2018-03-17T11:12:33.899Z,71.20
2018-03-17T11:15:03.235Z,72.40
2018-03-17T11:17:32.633Z,71.00
2018-03-17T11:20:01.967Z,71.70
2018-03-17T11:22:31.420Z,71.60
2018-03-17T11:25:00.823Z,70.50
2018-03-17T11:27:30.194Z,66.80
2018-03-17T11:30:00.559Z,68.10
2018-03-17T11:32:29.907Z,68.50
2018-03-17T11:34:59.323Z,63.70
2018-03-17T11:37:28.703Z,66.50
2018-03-17T11:39:58.130Z,67.80
2018-03-17T11:42:27.479Z,66.50
2018-03-17T11:44:56.851Z,66.90
2018-03-17T11:47:26.324Z,66.80
2018-03-17T11:49:55.719Z,67.20
2018-03-17T11:52:25.139Z,65.80
2018-03-17T11:54:54.506Z,67.60
2018-03-17T11:57:23.898Z,66.10
2018-03-17T11:59:53.222Z,66.80
2018-03-17T12:02:22.619Z,66.40
2018-03-17T12:04:51.979Z,65.40
2018-03-17T12:07:21.379Z,66.40
2018-03-17T12:09:51.519Z,65.20
2018-03-17T12:12:20.948Z,65.00
2018-03-17T12:14:50.356Z,64.70
2018-03-17T12:17:19.863Z,63.70
2018-03-17T12:19:49.347Z,65.40
2018-03-17T12:22:18.745Z,63.80
2018-03-17T12:24:48.170Z,64.80
2018-03-17T12:27:17.555Z,66.10
2018-03-17T12:29:46.933Z,64.40
2018-03-17T12:32:17.195Z,64.10
2018-03-17T12:34:46.507Z,64.20
2018-03-17T12:37:15.841Z,68.20
2018-03-17T12:39:45.198Z,68.20
2018-03-17T12:42:14.588Z,69.30
2018-03-17T12:44:43.959Z,70.20
2018-03-17T12:47:13.682Z,69.40
2018-03-17T12:49:43.058Z,69.70
2018-03-17T12:52:13.100Z,70.40
2018-03-17T12:54:42.507Z,70.30
2018-03-17T12:57:11.813Z,70.90
2018-03-17T12:59:41.178Z,70.40
2018-03-17T13:02:10.541Z,71.60
2018-03-17T13:04:39.891Z,72.10
2018-03-17T13:07:10.101Z,72.30
2018-03-17T13:09:39.453Z,72.30
2018-03-17T13:12:09.166Z,75.00
2018-03-17T13:14:39.249Z,74.50
2018-03-17T13:17:08.730Z,75.40
2018-03-17T13:19:38.932Z,77.80
2018-03-17T13:22:08.606Z,77.70
2018-03-17T13:24:38.007Z,79.30
2018-03-17T13:27:25.077Z,78.10
2018-03-17T13:29:54.528Z,79.90
2018-03-17T13:32:41.579Z,79.80
2018-03-17T13:35:10.967Z,79.80
2018-03-17T13:37:41.427Z,81.90
2018-03-17T13:40:28.650Z,81.90
2018-03-17T13:42:58.092Z,82.10
2018-03-17T13:45:27.447Z,80.40
2018-03-17T13:47:56.767Z,81.10
2018-03-17T13:50:26.888Z,83.00
2018-03-17T13:52:56.244Z,83.00
2018-03-17T13:55:25.559Z,82.70
2018-03-17T13:57:54.867Z,83.90
2018-03-17T14:00:24.167Z,83.20
2018-03-17T14:02:53.539Z,83.80
2018-03-17T14:05:22.958Z,84.80
2018-03-17T14:07:52.301Z,83.50
2018-03-17T14:10:21.679Z,84.60
2018-03-17T14:12:51.799Z,85.60
2018-03-17T14:15:21.148Z,84.50
2018-03-17T14:17:50.687Z,85.90
2018-03-17T14:20:21.082Z,85.50
2018-03-17T14:22:50.518Z,85.50
2018-03-17T14:25:19.926Z,86.80
2018-03-17T14:27:49.254Z,86.10
2018-03-17T14:30:19.339Z,86.30
2018-03-17T14:32:49.460Z,86.70
2018-03-17T14:35:18.822Z,86.70
2018-03-17T14:37:48.942Z,87.40
2018-03-17T14:40:18.290Z,86.60
2018-03-17T14:42:47.639Z,86.50
2018-03-17T14:45:16.967Z,87.50
2018-03-17T14:47:46.484Z,87.30
2018-03-17T14:50:16.619Z,86.90
2018-03-17T14:52:45.971Z,86.70
2018-03-17T14:55:15.308Z,86.90
2018-03-17T14:57:44.612Z,87.90
2018-03-17T15:00:13.882Z,87.40
2018-03-17T15:02:43.242Z,88.60
2018-03-17T15:05:13.287Z,88.30
2018-03-17T15:07:42.591Z,88.30
2018-03-17T15:10:11.923Z,88.20
2018-03-17T15:12:41.279Z,88.20
2018-03-17T15:15:10.819Z,88.00
2018-03-17T15:17:40.127Z,86.60
2018-03-17T15:20:09.469Z,86.20
2018-03-17T15:22:39.597Z,87.70
2018-03-17T15:25:08.944Z,87.60
2018-03-17T15:27:38.423Z,87.00
2018-03-17T15:30:07.946Z,86.80
2018-03-17T15:32:37.277Z,87.70
2018-03-17T15:35:06.610Z,88.10
2018-03-17T15:37:35.977Z,88.50
2018-03-17T15:40:05.308Z,87.60
2018-03-17T15:42:34.698Z,88.50
2018-03-17T15:45:04.807Z,86.90
2018-03-17T15:47:34.898Z,88.30
2018-03-17T15:50:04.355Z,87.60
2018-03-17T15:52:33.791Z,88.50
2018-03-17T15:55:03.149Z,88.20
2018-03-17T15:57:32.555Z,89.10
2018-03-17T16:00:01.983Z,90.00
2018-03-17T16:02:31.340Z,90.00
2018-03-17T16:05:01.462Z,90.10
2018-03-17T16:07:31.680Z,90.70
2018-03-17T16:10:01.002Z,90.70
2018-03-17T16:12:30.510Z,91.00
2018-03-17T16:14:59.881Z,91.00
2018-03-17T16:17:29.327Z,91.50
2018-03-17T16:19:58.730Z,91.20
2018-03-17T16:22:28.075Z,90.90
2018-03-17T16:24:57.408Z,91.30
2018-03-17T16:27:27.502Z,91.60
2018-03-17T16:29:57.612Z,91.80
2018-03-17T16:32:27.056Z,91.80
2018-03-17T16:34:56.447Z,91.60
2018-03-17T16:37:25.785Z,91.80
2018-03-17T16:39:55.204Z,92.00
2018-03-17T16:42:24.588Z,91.90
2018-03-17T16:44:54.023Z,91.90
2018-03-17T16:47:23.390Z,92.10
2018-03-17T16:49:52.867Z,92.60
2018-03-17T16:52:22.983Z,92.40
2018-03-17T16:54:52.357Z,92.40
2018-03-17T16:57:21.707Z,92.50
2018-03-17T16:59:51.111Z,92.70
2018-03-17T17:02:20.527Z,92.50
2018-03-17T17:04:49.924Z,92.80
2018-03-17T17:07:19.283Z,93.00
2018-03-17T17:09:48.947Z,93.10
2018-03-17T17:12:18.360Z,93.00
2018-03-17T17:14:47.811Z,93.20
2018-03-17T17:17:17.199Z,93.40
2018-03-17T17:19:46.528Z,93.30
2018-03-17T17:22:15.949Z,93.40
2018-03-17T17:24:45.330Z,93.60
2018-03-17T17:27:14.778Z,93.70
2018-03-17T17:29:44.159Z,93.70
2018-03-17T17:32:13.544Z,93.80
2018-03-17T17:34:42.939Z,93.60
2018-03-17T17:37:12.359Z,93.60
2018-03-17T17:39:41.782Z,93.60
2018-03-17T17:42:11.140Z,93.40
2018-03-17T17:44:40.540Z,93.90
2018-03-17T17:47:10.015Z,93.50
2018-03-17T17:49:39.450Z,93.50
2018-03-17T17:52:08.845Z,94.10
2018-03-17T17:54:38.197Z,93.60
2018-03-17T17:57:07.547Z,93.50
2018-03-17T17:59:36.927Z,93.70
2018-03-17T18:02:06.278Z,93.80
2018-03-17T18:04:35.660Z,94.00
2018-03-17T18:07:05.048Z,94.00
2018-03-17T18:09:34.479Z,94.30
2018-03-17T18:12:03.887Z,94.20
2018-03-17T18:14:33.260Z,94.30
2018-03-17T18:17:02.598Z,94.20
2018-03-17T18:19:31.946Z,94.50
2018-03-17T18:22:02.100Z,94.60
2018-03-17T18:24:31.530Z,94.60
2018-03-17T18:27:00.900Z,94.50
2018-03-17T18:29:30.302Z,94.60
2018-03-17T18:31:59.704Z,94.80
2018-03-17T18:34:29.155Z,94.70
2018-03-17T18:36:58.507Z,94.50
2018-03-17T18:39:27.878Z,94.80
2018-03-17T18:41:57.276Z,95.00
2018-03-17T18:44:27.380Z,95.10
2018-03-17T18:46:56.721Z,95.10
2018-03-17T18:49:26.020Z,95.00
2018-03-17T18:51:55.418Z,94.90
2018-03-17T18:54:24.869Z,94.90
2018-03-17T18:56:54.238Z,94.90
2018-03-17T18:59:23.589Z,94.80
2018-03-17T19:01:53.045Z,94.90
2018-03-17T19:04:22.433Z,94.90
2018-03-17T19:06:51.828Z,95.50
2018-03-17T19:09:21.986Z,95.20
2018-03-17T19:11:51.327Z,95.20
2018-03-17T19:14:20.718Z,95.10
2018-03-17T19:16:50.061Z,95.10
2018-03-17T19:19:19.456Z,94.90
2018-03-17T19:21:48.779Z,94.80
2018-03-17T19:24:18.140Z,94.90
2018-03-17T19:26:47.443Z,95.20
2018-03-17T19:29:16.980Z,94.90
2018-03-17T19:31:46.367Z,95.10
2018-03-17T19:34:15.756Z,94.90
2018-03-17T19:36:45.839Z,95.10
2018-03-17T19:39:15.161Z,95.10
2018-03-17T19:41:44.471Z,95.00
2018-03-17T19:44:13.807Z,95.30
2018-03-17T19:46:43.969Z,95.30
2018-03-17T19:49:13.360Z,95.30
2018-03-17T19:51:42.700Z,95.50
2018-03-17T19:54:12.827Z,95.40
2018-03-17T19:56:42.935Z,95.60
2018-03-17T19:59:13.114Z,95.60
2018-03-17T20:01:42.487Z,95.60
2018-03-17T20:04:11.848Z,95.50
2018-03-17T20:06:41.146Z,95.90
2018-03-17T20:09:10.587Z,95.70
2018-03-17T20:11:39.927Z,95.80
2018-03-17T20:14:09.284Z,95.60
2018-03-17T20:16:38.761Z,95.70
2018-03-17T20:19:08.917Z,95.90
2018-03-17T20:21:38.403Z,95.90
2018-03-17T20:24:07.655Z,95.90
2018-03-17T20:26:37.021Z,95.80
2018-03-17T20:29:06.377Z,95.90
2018-03-17T20:31:35.708Z,95.90
2018-03-17T20:34:05.060Z,95.60
2018-03-17T20:36:34.379Z,95.90
2018-03-17T20:39:04.687Z,96.00
2018-03-17T20:41:34.033Z,96.00
2018-03-17T20:44:03.468Z,95.80
2018-03-17T20:46:32.798Z,95.90
2018-03-17T20:49:02.127Z,95.90
2018-03-17T20:51:32.230Z,95.80
2018-03-17T20:54:01.566Z,96.10
2018-03-17T20:56:31.068Z,95.70
2018-03-17T20:59:00.410Z,95.60
2018-03-17T21:01:29.743Z,95.70
2018-03-17T21:03:59.825Z,95.70
2018-03-17T21:06:29.162Z,95.50
2018-03-17T21:08:59.279Z,95.40
2018-03-17T21:11:29.364Z,95.50
2018-03-17T21:13:58.797Z,95.50
2018-03-17T21:16:28.966Z,95.50
2018-03-17T21:18:58.347Z,95.50
2018-03-17T21:21:27.732Z,95.50
2018-03-17T21:23:57.860Z,95.40
2018-03-17T21:26:27.187Z,95.40
2018-03-17T21:28:56.547Z,95.30
2018-03-17T21:31:25.887Z,95.50
2018-03-17T21:33:55.242Z,95.40
2018-03-17T21:36:24.599Z,95.20
2018-03-17T21:38:53.952Z,94.90
2018-03-17T21:41:23.288Z,95.10
2018-03-17T21:43:52.634Z,94.90
2018-03-17T21:46:21.988Z,95.00
2018-03-17T21:48:51.339Z,94.90
2018-03-17T21:51:20.683Z,94.90
2018-03-17T21:53:49.999Z,94.90
2018-03-17T21:56:19.399Z,94.70
2018-03-17T21:58:49.318Z,94.80
2018-03-17T22:01:19.191Z,94.50
2018-03-17T22:03:49.100Z,94.50
2018-03-17T22:06:19.844Z,94.70
2018-03-17T22:08:50.503Z,94.70
2018-03-17T22:11:20.440Z,94.70
2018-03-17T22:13:50.382Z,94.40
2018-03-17T22:16:21.110Z,94.60
2018-03-17T22:18:51.807Z,94.70
2018-03-17T22:21:22.567Z,94.50
2018-03-17T22:23:53.442Z,94.50
2018-03-17T22:26:24.166Z,94.30
2018-03-17T22:28:54.166Z,94.30
2018-03-17T22:33:25.303Z,94.30
2018-03-17T22:35:55.226Z,94.40
2018-03-17T22:38:25.159Z,94.60
2018-03-17T22:40:55.107Z,94.40
2018-03-17T22:43:25.039Z,94.10
2018-03-17T22:45:54.999Z,94.40
2018-03-17T22:48:25.736Z,94.50
2018-03-17T22:50:55.707Z,94.50
2018-03-17T22:53:25.643Z,94.30
2018-03-17T22:55:55.660Z,94.50
2018-03-17T22:58:25.651Z,94.50
2018-03-17T23:00:55.567Z,94.60
2018-03-17T23:03:25.568Z,94.20
2018-03-17T23:05:56.259Z,94.30
2018-03-17T23:08:26.172Z,94.30
2018-03-17T23:10:56.899Z,94.30
2018-03-17T23:13:27.630Z,94.30
2018-03-17T23:15:57.599Z,94.30
2018-03-17T23:18:27.485Z,94.30
2018-03-17T23:20:58.219Z,94.40
2018-03-17T23:23:28.916Z,94.30
2018-03-17T23:25:58.838Z,94.20
2018-03-17T23:28:28.837Z,94.40
2018-03-17T23:30:59.647Z,94.30
2018-03-17T23:33:29.558Z,94.30
2018-03-17T23:35:59.558Z,94.60
2018-03-17T23:38:30.274Z,94.20
2018-03-17T23:41:01.038Z,94.30
2018-03-17T23:43:31.854Z,93.90
2018-03-17T23:46:02.570Z,94.00
2018-03-17T23:48:32.519Z,94.00
2018-03-17T23:51:02.488Z,94.30
2018-03-17T23:53:33.267Z,94.50
2018-03-17T23:56:04.007Z,94.50
2018-03-17T23:58:33.979Z,94.50
